Latest Coastal Weather Observations for Willis Island

IDQ60701

Issued at 12:21 am EST Wednesday 1 March 2017 (issued every 10 minutes, with the page automatically refreshed every 10 minutes)

About coastal observations | Map of coastal stations | Coastal observations for QLD | Marine services | Other Formats
Station Details ID: 200283 Name: WILLIS ISLAND Lat: -16.29 Lon: 149.97 Height: 9.29 m
Data from the previous 72 hours. | See also: Recent months at Willis Island
Date/Time
EST
Temp
°C
Wind Pressure Rain since
9am
mm
Weather Cloud Vis
km
Sea
Height
m
Swell
Dir  Spd
kts
Gust
kts
hPa Trend Height
m
Period
s
Dir
01/12:00am 28.0 ESE 17 19 1008.8 F 13.4 - - - - - - -
 
Date/Time
EST
Temp
°C
Wind Pressure Rain since
9am
mm
Weather Cloud Vis
km
Sea
Height
m
Swell
Dir  Spd
kts
Gust
kts
hPa Trend Height
m
Period
s
Dir
28/11:30pm 28.0 ESE 19 22 1009.2 - 13.4 - - - - - - -
28/11:00pm 28.0 ESE 17 20 1009.4 - 13.4 - - - - - - -
28/10:30pm 28.0 SE 18 21 1009.4 - 13.4 - - - - - - -
28/10:00pm 27.7 ESE 18 21 1009.4 - 13.4 - - - - - - -
28/09:30pm 27.4 SE 17 20 1009.5 - 13.4 - - - - - - -
28/09:00pm 25.8 SE 18 22 1009.6 R 13.4 Recent precip. - - - - - -
28/08:30pm 26.1 SE 19 23 1009.4 - 13.4 - - - - - - -
28/08:00pm 25.5 SE 20 24 1009.1 - 12.4 - - - - - - -
28/07:43pm 27.9 SE 15 25 1008.9 - 0.0 - - - - - - -
28/07:30pm 28.4 SE 16 19 1008.7 - 0.0 - - - - - - -
28/07:00pm 28.1 SE 15 18 1008.4 - 0.0 - - - - - - -
28/06:30pm 27.9 SE 18 19 1008.0 - 0.0 - - - - - - -
28/06:00pm 28.2 ESE 19 23 1007.8 S 0.0 Distant precip. Mostly cloudy 15 2 0.5 5 SE
28/05:30pm 28.4 ESE 17 19 1007.6 - 0.0 - - - - - - -
28/05:00pm 28.4 ESE 19 22 1007.4 - 0.0 - - - - - - -
28/04:30pm 27.9 E 24 30 1007.2 - 0.0 - - - - - - -
28/04:21pm 28.9 ESE 18 30 1007.3 - 0.0 - - - - - - -
28/04:00pm 29.4 ESE 15 19 1007.3 - 0.0 - - - - - - -
28/03:30pm 30.5 ESE 17 20 1007.2 - 0.0 - - - - - - -
28/03:00pm 30.8 SE 16 19 1007.4 S 0.0 Distant precip. Partly cloudy 25 2 0.5 10 SE
28/02:30pm 30.5 SE 17 20 1007.6 - 0.0 - - - - - - -
28/02:00pm 30.6 ESE 17 20 1007.6 - 0.0 - - - - - - -
28/01:30pm 31.1 ESE 16 19 1007.6 - 0.0 - - - - - - -
28/01:00pm 31.3 ESE 17 19 1008.1 - 0.0 - - - - - - -
28/12:30pm 31.1 ESE 16 19 1008.6 - 0.0 - - - - - - -
28/12:00pm 30.8 ESE 16 18 1009.0 R 0.0 Distant precip. Partly cloudy 30 2 0.6 10 E
28/11:30am 30.4 SE 16 18 1009.1 - 0.0 - - - - - - -
28/11:00am 30.6 ESE 18 21 1009.4 - 0.0 - - - - - - -
28/10:30am 29.9 ESE 17 20 1009.6 - 0.0 - - - - - - -
28/10:00am 30.5 SE 17 21 1009.6 - 0.0 - - - - - - -
28/09:30am 30.2 ESE 18 20 1009.7 - 0.0 - - - - - - -
28/09:00am 29.9 SE 19 21 1009.7 F 0.0 Fine Partly cloudy 25 2 0.6 10 E
28/08:30am 29.6 ESE 18 20 1009.3 - 0.0 - - - - - - -
28/08:00am 29.4 SE 19 22 1009.1 - 0.0 - - - - - - -
28/07:30am 29.1 ESE 19 22 1008.7 - 0.0 - - - - - - -
28/07:00am 28.2 SE 18 22 1008.5 - 0.0 - - - - - - -
28/06:30am 28.2 ESE 18 20 1008.5 - 0.0 - - - - - - -
28/06:00am 28.1 ESE 19 22 1008.4 S 0.0 - - - - - - -
28/05:30am 28.0 SE 18 21 1008.2 - 0.0 - - - - - - -
28/05:00am 28.0 SE 19 22 1008.1 - 0.0 - - - - - - -
28/04:30am 27.8 SE 18 22 1007.8 - 0.0 - - - - - - -
28/04:00am 27.8 SE 18 20 1007.6 - 0.0 - - - - - - -
28/03:30am 27.8 SE 19 23 1007.7 - 0.0 - - - - - - -
28/03:00am 27.8 SE 20 23 1007.7 F 0.0 - - - - - - -
28/02:30am 27.9 SE 19 22 1007.8 - 0.0 - - - - - - -
28/02:00am 28.0 SE 19 22 1008.0 - 0.0 - - - - - - -
28/01:30am 28.0 SE 18 22 1008.7 - 0.0 - - - - - - -
28/01:00am 28.0 SE 16 19 1009.0 - 0.0 - - - - - - -
28/12:30am 28.1 SE 17 19 1009.4 - 0.0 - - - - - - -
28/12:00am 28.2 SE 16 19 1009.9 R 0.0 - - - - - - -
 
Date/Time
EST
Temp
°C
Wind Pressure Rain since
9am
mm
Weather Cloud Vis
km
Sea
Height
m
Swell
Dir  Spd
kts
Gust
kts
hPa Trend Height
m
Period
s
Dir
27/11:30pm 28.2 ESE 17 20 1010.3 - 0.0 - - - - - - -
27/11:00pm 28.2 ESE 17 19 1010.4 - 0.0 - - - - - - -
27/10:30pm 28.2 SE 17 19 1010.3 - 0.0 - - - - - - -
27/10:00pm 28.3 SE 17 20 1010.1 - 0.0 - - - - - - -
27/09:30pm 28.3 SE 17 20 1009.9 - 0.0 - - - - - - -
27/09:00pm 28.3 SE 17 20 1009.8 F 0.0 - - - - - - -
27/08:30pm 28.4 SE 17 20 1009.7 - 0.0 - - - - - - -
27/08:00pm 28.4 SE 18 20 1009.5 - 0.0 - - - - - - -
27/07:30pm 28.4 SE 17 20 1009.3 - 0.0 - - - - - - -
27/07:00pm 28.4 SE 16 19 1009.0 - 0.0 - - - - - - -
27/06:30pm 28.4 SE 16 19 1008.7 - 0.0 - - - - - - -
27/06:00pm 28.6 SE 17 20 1008.3 R 0.0 Fine Mostly cloudy 30 2 0.6 5 E
27/05:30pm 28.9 SE 17 20 1008.0 - 0.0 - - - - - - -
27/05:00pm 29.0 SE 16 18 1007.8 - 0.0 - - - - - - -
27/04:30pm 28.9 SE 16 18 1007.6 - 0.0 - - - - - - -
27/04:00pm 30.2 SE 15 18 1007.6 - 0.0 - - - - - - -
27/03:30pm 30.2 SE 16 19 1007.6 - 0.0 - - - - - - -
27/03:00pm 30.4 SE 15 18 1007.7 R 0.0 Fine Mostly cloudy 30 2 0.7 5 E
27/02:30pm 30.6 SE 15 18 1007.8 - 0.0 - - - - - - -
27/02:00pm 30.6 SE 17 19 1007.7 - 0.0 - - - - - - -
27/01:30pm 29.8 SE 15 18 1008.0 - 0.0 - - - - - - -
27/01:00pm 31.3 SE 14 17 1008.3 - 0.0 - - - - - - -
27/12:30pm 30.5 ESE 15 18 1008.7 - 0.0 - - - - - - -
27/12:00pm 30.0 ESE 16 18 1009.2 R 0.0 Fine Mostly cloudy 25 2 0.7 8 E
27/11:30am 29.9 ESE 17 19 1009.5 - 0.0 - - - - - - -
27/11:00am 29.7 ESE 17 19 1009.6 - 0.0 - - - - - - -
27/10:30am 29.7 ESE 17 20 1009.8 - 0.0 - - - - - - -
27/10:00am 29.5 ESE 17 20 1009.9 - 0.0 - - - - - - -
27/09:30am 28.7 ESE 15 18 1010.0 - 0.0 - - - - - - -
27/09:00am 29.5 E 19 21 1009.7 F 3.2 Distant precip. Mostly cloudy 30 2 0.7 7 E
27/08:30am 27.6 E 24 28 1009.6 - 3.2 - - - - - - -
27/08:07am 28.3 ESE 20 30 1009.6 - 3.2 - - - - - - -
27/08:00am 28.9 ESE 17 21 1009.6 - 3.2 - - - - - - -
27/07:30am 26.9 ESE 23 29 1009.6 - 3.2 - - - - - - -
27/07:07am 27.7 ESE 22 32 1009.4 - 3.2 - - - - - - -
27/07:00am 27.7 ESE 19 23 1009.4 - 3.2 - - - - - - -
27/06:30am 26.7 ESE 21 28 1009.2 - 3.2 - - - - - - -
27/06:00am 27.1 ESE 27 31 1008.6 R 3.2 - - - - - - -
27/05:30am 27.0 ESE 24 27 1008.2 - 3.2 - - - - - - -
27/05:00am 27.6 SE 23 28 1007.9 - 3.2 - - - - - - -
27/04:30am 27.3 SE 21 25 1007.7 - 3.2 - - - - - - -
27/04:00am 26.6 SE 24 29 1007.7 - 3.0 - - - - - - -
27/03:30am 27.1 SE 22 26 1007.6 - 3.0 - - - - - - -
27/03:00am 27.0 SE 23 29 1007.6 R 1.0 - - - - - - -
27/02:30am 27.9 ESE 19 22 1007.7 - 1.0 - - - - - - -
27/02:00am 27.5 SE 15 19 1007.8 - 1.0 - - - - - - -
27/01:30am 26.5 SE 24 30 1008.3 - 1.0 - - - - - - -
27/01:00am 26.3 SE 22 28 1008.4 - 1.0 - - - - - - -
27/12:37am 27.6 ESE 19 24 1008.6 - 1.0 - - - - - - -
27/12:30am 28.1 E 17 21 1008.7 - 1.0 - - - - - - -
27/12:00am 28.4 ESE 19 22 1009.1 R 1.0 - - - - - - -
 
Date/Time
EST
Temp
°C
Wind Pressure Rain since
9am
mm
Weather Cloud Vis
km
Sea
Height
m
Swell
Dir  Spd
kts
Gust
kts
hPa Trend Height
m
Period
s
Dir
26/11:30pm 28.5 ESE 21 24 1009.2 - 1.0 - - - - - - -
26/11:00pm 28.4 ESE 18 21 1009.4 - 1.0 - - - - - - -
26/10:30pm 28.4 ESE 18 22 1009.4 - 1.0 - - - - - - -
26/10:00pm 28.4 ESE 18 21 1009.3 - 1.0 - - - - - - -
26/09:30pm 28.5 ESE 19 22 1009.0 - 1.0 - - - - - - -
26/09:00pm 28.5 ESE 20 23 1008.7 F 1.0 - - - - - - -
26/08:30pm 28.6 ESE 19 21 1008.6 - 1.0 - - - - - - -
26/08:00pm 28.4 ESE 19 21 1008.4 - 1.0 - - - - - - -
26/07:30pm 28.4 ESE 20 23 1008.0 - 1.0 - - - - - - -
26/07:00pm 28.5 ESE 20 23 1007.8 - 1.0 - - - - - - -
26/06:30pm 28.4 ESE 20 22 1007.5 - 1.0 - - - - - - -
26/06:00pm 28.5 ESE 19 24 1007.2 S 1.0 Recent precip. Mostly cloudy 27 2 1.3 8 E
26/05:30pm 28.2 ESE 19 23 1007.1 - 0.8 - - - - - - -
26/05:07pm 28.2 SE 17 30 1007.1 - 0.0 - - - - - - -
26/05:00pm 30.2 SE 16 19 1007.1 - 0.0 - - - - - - -
26/04:30pm 29.5 ESE 13 15 1006.9 - 0.0 - - - - - - -
26/04:00pm 29.2 ESE 15 21 1007.0 - 0.0 - - - - - - -
26/03:30pm 30.1 ESE 14 17 1007.0 - 0.0 - - - - - - -
26/03:00pm 30.7 SE 13 17 1006.8 S 0.0 Distant precip. Mostly cloudy 27 1 1.2 6 E
26/02:30pm 31.4 SE 12 15 1006.8 - 0.0 - - - - - - -
26/02:00pm 31.3 SE 13 15 1007.1 - 0.0 - - - - - - -
26/01:30pm 31.0 SE 12 13 1007.3 - 0.0 - - - - - - -
26/01:00pm 31.3 SE 13 15 1007.7 - 0.0 - - - - - - -
26/12:30pm 31.4 SE 12 15 1008.1 - 0.0 - - - - - - -
26/12:00pm 31.5 SE 13 15 1008.4 F 0.0 Fine Partly cloudy 25 2 1.5 8 SE
26/11:30am 31.5 SE 12 14 1008.6 - 0.0 - - - - - - -
26/11:00am 31.0 SE 13 15 1008.8 - 0.0 - - - - - - -
26/10:30am 30.8 SE 12 14 1009.0 - 0.0 - - - - - - -
26/10:00am 30.8 ESE 13 15 1009.3 - 0.0 - - - - - - -
26/09:30am 30.6 ESE 12 14 1009.5 - 0.0 - - - - - - -
26/09:00am 30.2 ESE 13 16 1009.5 R 0.0 Fine Partly cloudy 28 2 1.8 9 SE
26/08:30am 29.7 ESE 14 17 1009.2 - 0.0 - - - - - - -
26/08:00am 29.7 ESE 14 17 1009.1 - 0.0 - - - - - - -
26/07:30am 29.2 ESE 13 15 1008.8 - 0.0 - - - - - - -
26/07:00am 28.6 ESE 13 15 1008.2 - 0.0 - - - - - - -
26/06:30am 28.2 ESE 14 17 1007.7 - 0.0 - - - - - - -
26/06:00am 27.9 ESE 15 17 1007.5 F 0.0 - - - - - - -
26/05:30am 27.9 ESE 15 17 1007.3 - 0.0 - - - - - - -
26/05:00am 27.9 ESE 15 17 1007.2 - 0.0 - - - - - - -
26/04:30am 27.8 SE 14 16 1007.1 - 0.0 - - - - - - -
26/04:00am 27.7 ESE 14 16 1007.1 - 0.0 - - - - - - -
26/03:30am 27.7 ESE 15 18 1007.0 - 0.0 - - - - - - -
26/03:00am 27.8 SE 15 18 1007.1 F 0.0 - - - - - - -
26/02:30am 27.8 ESE 15 16 1007.3 - 0.0 - - - - - - -
26/02:00am 28.0 ESE 15 17 1007.7 - 0.0 - - - - - - -
26/01:30am 27.9 ESE 15 17 1007.8 - 0.0 - - - - - - -
26/01:00am 28.2 ESE 16 19 1008.2 - 0.0 - - - - - - -
26/12:30am 27.8 SSE 12 17 1008.5 - 0.0 - - - - - - -

Other Formats:

Comma delimited format used in spreadsheet applications
http://www.bom.gov.au/fwo/IDQ60701/IDQ60701.94299.axf

JavaScript Object Notation format (JSON) in row-major order
http://www.bom.gov.au/fwo/IDQ60701/IDQ60701.94299.json